Time;durP1;ratioP1;P1;durP2;ratioP2;P2;SDS_P1;SDS_P2;PMS_P1;PMS_P2;Temp;Humidity;BMP_temperature;BMP_pressure;BME280_temperature;BME280_humidity;BME280_pressure;Samples;Min_cycle;Max_cycle;Signal;HPM_P1;HPM_P2
2022/03/03 00:01:42;;;;;;;7.00;3.30;;;-2.00;99.90;;;;;;5057580;28;20093;-79
2022/03/03 00:04:08;;;;;;;9.07;3.60;;;-2.00;99.80;;;;;;5076444;28;20496;-79
2022/03/03 00:06:35;;;;;;;7.80;3.97;;;-2.00;99.80;;;;;;5057520;28;20032;-79
2022/03/03 00:09:01;;;;;;;8.23;4.05;;;-2.00;99.60;;;;;;5077376;28;20103;-79
2022/03/03 00:11:26;;;;;;;8.65;4.18;;;-2.00;99.50;;;;;;5057689;28;20036;-79
2022/03/03 00:13:52;;;;;;;9.15;4.40;;;-2.10;99.30;;;;;;5057737;28;20051;-79
2022/03/03 00:16:18;;;;;;;10.18;4.53;;;-2.10;99.40;;;;;;5076035;28;20020;-79
2022/03/03 00:18:44;;;;;;;8.52;4.55;;;-2.20;99.40;;;;;;5076834;28;20059;-79
2022/03/03 00:21:10;;;;;;;9.43;4.15;;;-2.20;99.40;;;;;;5078313;28;20453;-79
2022/03/03 00:23:35;;;;;;;8.68;3.70;;;-2.30;99.40;;;;;;5059351;28;20056;-79
2022/03/03 00:26:02;;;;;;;9.10;3.92;;;-2.30;99.70;;;;;;5077767;28;20025;-79
2022/03/03 00:28:27;;;;;;;10.35;4.40;;;-2.40;99.70;;;;;;5076930;28;20074;-79
2022/03/03 00:30:53;;;;;;;9.00;4.38;;;-2.40;99.70;;;;;;5059551;28;20029;-79
2022/03/03 00:33:19;;;;;;;9.13;4.68;;;-2.50;99.70;;;;;;5077429;28;20035;-79
2022/03/03 00:35:45;;;;;;;12.57;5.50;;;-2.50;99.70;;;;;;5076979;28;20039;-79
2022/03/03 00:38:11;;;;;;;11.93;4.70;;;-2.50;99.80;;;;;;5073856;28;20032;-79
2022/03/03 00:40:37;;;;;;;11.27;4.38;;;-2.50;99.90;;;;;;5075945;28;20031;-79
2022/03/03 00:43:04;;;;;;;15.18;5.45;;;-2.50;99.90;;;;;;5076638;28;20028;-79
2022/03/03 00:45:30;;;;;;;12.90;6.40;;;-2.50;99.90;;;;;;5075248;28;20028;-79
2022/03/03 00:47:56;;;;;;;14.50;6.25;;;-2.50;99.90;;;;;;5075453;28;20029;-79
2022/03/03 00:50:21;;;;;;;11.15;5.00;;;-2.50;99.90;;;;;;5057223;28;20086;-79
2022/03/03 00:52:47;;;;;;;7.28;3.63;;;-2.50;99.90;;;;;;5075502;28;20029;-79
2022/03/03 00:55:13;;;;;;;5.55;3.10;;;-2.50;99.90;;;;;;5074982;28;20073;-79
2022/03/03 00:57:39;;;;;;;6.80;3.20;;;-2.60;99.80;;;;;;5074635;28;20108;-79
2022/03/03 01:00:06;;;;;;;5.85;3.00;;;-2.60;99.80;;;;;;5074418;28;20064;-79
2022/03/03 01:02:32;;;;;;;6.35;2.50;;;-2.60;99.80;;;;;;5056660;28;20020;-79
2022/03/03 01:04:58;;;;;;;6.65;2.50;;;-2.50;99.70;;;;;;5074672;28;20388;-79
2022/03/03 01:07:24;;;;;;;7.72;2.92;;;-2.60;99.30;;;;;;5047042;28;20052;-79
2022/03/03 01:09:50;;;;;;;5.65;2.58;;;-2.70;99.80;;;;;;5055017;28;20377;-79
2022/03/03 01:12:15;;;;;;;5.22;2.45;;;-2.80;99.90;;;;;;5075061;28;20104;-79
2022/03/03 01:14:41;;;;;;;6.03;2.80;;;-2.80;99.90;;;;;;5074779;28;20028;-79
2022/03/03 01:17:07;;;;;;;7.05;2.92;;;-2.80;99.90;;;;;;5047230;28;20033;-79
2022/03/03 01:19:32;;;;;;;4.88;2.63;;;-2.80;99.90;;;;;;5074051;28;20036;-79
2022/03/03 01:21:58;;;;;;;7.60;2.78;;;-2.80;99.90;;;;;;5073929;28;20025;-79
2022/03/03 01:24:24;;;;;;;5.97;3.30;;;-2.80;99.90;;;;;;5074736;28;20024;-79
2022/03/03 01:26:50;;;;;;;7.97;3.60;;;-2.90;99.70;;;;;;5074763;28;20099;-79
2022/03/03 01:29:15;;;;;;;8.18;3.80;;;-3.00;99.70;;;;;;5074879;28;20492;-79
2022/03/03 01:31:41;;;;;;;5.78;3.63;;;-3.00;99.80;;;;;;5058192;28;20036;-79
2022/03/03 01:34:07;;;;;;;7.18;3.47;;;-3.10;99.70;;;;;;5057698;28;20035;-79
2022/03/03 01:36:34;;;;;;;7.07;3.58;;;-3.10;99.90;;;;;;5076024;28;20039;-79
2022/03/03 01:39:00;;;;;;;9.48;4.28;;;-3.10;99.90;;;;;;5076055;28;20024;-79
2022/03/03 01:41:26;;;;;;;13.98;5.15;;;-3.10;99.90;;;;;;5081700;28;20040;-79
2022/03/03 01:43:52;;;;;;;8.68;4.88;;;-3.20;99.90;;;;;;5095283;28;20020;-79
2022/03/03 01:46:17;;;;;;;8.02;3.60;;;-3.20;99.90;;;;;;5074909;28;20025;-79
2022/03/03 01:48:44;;;;;;;6.22;3.22;;;-3.30;99.90;;;;;;5073457;28;20058;-79
2022/03/03 01:51:10;;;;;;;7.10;3.25;;;-3.30;99.90;;;;;;5056408;28;20048;-79
2022/03/03 01:53:37;;;;;;;7.05;3.33;;;-3.40;99.90;;;;;;5055712;28;20404;-79
2022/03/03 01:56:03;;;;;;;5.32;2.70;;;-3.40;99.90;;;;;;5073253;28;20059;-79
2022/03/03 01:58:28;;;;;;;6.63;3.05;;;-3.40;99.90;;;;;;5073575;28;20471;-79
2022/03/03 02:00:54;;;;;;;7.22;2.72;;;-3.40;99.90;;;;;;5073547;28;20088;-78
2022/03/03 02:03:20;;;;;;;5.32;2.80;;;-3.30;99.90;;;;;;5073556;28;20400;-79
2022/03/03 02:05:46;;;;;;;8.05;2.83;;;-3.30;99.90;;;;;;5055306;28;20446;-79
2022/03/03 02:08:13;;;;;;;8.95;3.22;;;-3.30;99.90;;;;;;5055592;28;20021;-79
2022/03/03 02:10:39;;;;;;;9.45;3.53;;;-3.40;99.90;;;;;;5073324;28;20381;-79
2022/03/03 02:13:05;;;;;;;6.93;3.30;;;-3.40;99.90;;;;;;5073788;28;20058;-79
2022/03/03 02:15:31;;;;;;;8.27;4.00;;;-3.40;99.90;;;;;;5073132;28;20020;-79
2022/03/03 02:17:57;;;;;;;8.32;4.20;;;-3.50;99.90;;;;;;5098452;23;20040;-71
2022/03/03 02:20:24;;;;;;;11.15;4.57;;;-3.50;99.90;;;;;;5093758;28;20028;-71
2022/03/03 02:22:52;;;;;;;6.95;3.45;;;-3.60;99.90;;;;;;5093582;28;20028;-71
2022/03/03 02:25:19;;;;;;;9.65;4.53;;;-3.70;99.90;;;;;;5093655;28;20028;-71
2022/03/03 02:27:45;;;;;;;10.55;4.05;;;-3.70;99.90;;;;;;5075479;28;20035;-71
2022/03/03 02:30:13;;;;;;;19.95;8.52;;;-3.80;99.90;;;;;;5093652;28;20409;-71
2022/03/03 02:32:39;;;;;;;8.95;4.00;;;-3.80;99.90;;;;;;5093611;28;20085;-71
2022/03/03 02:35:06;;;;;;;7.57;3.60;;;-3.90;99.90;;;;;;5094127;28;20035;-71
2022/03/03 02:37:37;;;;;;;7.55;3.63;;;-4.00;99.90;;;;;;5093286;28;20028;-70
2022/03/03 02:40:05;;;;;;;7.70;3.53;;;-4.20;99.90;;;;;;5093496;28;20028;-71
2022/03/03 02:42:31;;;;;;;6.10;3.42;;;-4.20;99.90;;;;;;5093464;28;20034;-71
2022/03/03 02:44:56;;;;;;;5.38;3.20;;;-4.20;99.90;;;;;;5093791;28;20020;-71
2022/03/03 02:47:22;;;;;;;6.75;3.30;;;-4.30;99.90;;;;;;5093551;28;20016;-71
2022/03/03 02:49:48;;;;;;;5.50;2.75;;;-4.20;99.90;;;;;;5075415;28;20422;-71
2022/03/03 02:52:13;;;;;;;9.02;3.80;;;-4.20;99.90;;;;;;5093185;28;20016;-71
2022/03/03 02:54:39;;;;;;;9.35;3.90;;;-4.10;99.90;;;;;;5093688;28;20016;-71
2022/03/03 02:59:49;;;;;;;8.75;3.97;;;-4.10;99.90;;;;;;5093359;28;20497;-71
2022/03/03 03:02:15;;;;;;;9.45;4.07;;;-4.10;99.90;;;;;;5096707;28;20024;-70
2022/03/03 03:04:41;;;;;;;10.60;3.90;;;-4.10;99.90;;;;;;5097514;28;20490;-70
2022/03/03 03:07:06;;;;;;;8.20;3.70;;;-4.20;99.90;;;;;;5097260;28;20030;-70
2022/03/03 03:09:32;;;;;;;9.20;4.13;;;-4.20;99.90;;;;;;5097374;28;20024;-70
2022/03/03 03:11:58;;;;;;;10.48;6.07;;;-4.20;99.90;;;;;;5097334;28;20020;-71
2022/03/03 03:14:24;;;;;;;7.47;4.13;;;-4.20;99.90;;;;;;5097533;28;20035;-71
2022/03/03 03:16:49;;;;;;;9.35;4.45;;;-4.30;99.90;;;;;;5097081;28;20089;-71
2022/03/03 03:19:16;;;;;;;6.80;4.22;;;-4.40;99.90;;;;;;5097105;28;20027;-71
2022/03/03 03:21:41;;;;;;;9.07;3.92;;;-4.40;99.90;;;;;;5096817;28;20480;-70
2022/03/03 03:24:07;;;;;;;10.98;3.90;;;-4.50;99.90;;;;;;5097109;28;20052;-71
2022/03/03 03:26:33;;;;;;;9.05;3.92;;;-4.50;99.90;;;;;;5097536;28;20023;-71
2022/03/03 03:28:58;;;;;;;7.88;4.22;;;-4.50;99.90;;;;;;5078894;28;20085;-71
2022/03/03 03:31:24;;;;;;;8.32;3.58;;;-4.60;99.90;;;;;;5097253;28;20024;-71
2022/03/03 03:33:50;;;;;;;8.57;3.85;;;-4.70;99.90;;;;;;5097442;28;20472;-71
2022/03/03 03:36:16;;;;;;;7.63;4.03;;;-4.70;99.90;;;;;;5097974;28;20028;-71
2022/03/03 03:38:42;;;;;;;8.88;4.22;;;-4.80;99.90;;;;;;5096686;28;20158;-70
2022/03/03 03:41:07;;;;;;;7.47;3.50;;;-4.70;99.90;;;;;;5096722;28;20453;-71
2022/03/03 03:43:33;;;;;;;8.43;3.63;;;-4.70;99.90;;;;;;5096994;28;20024;-71
2022/03/03 03:45:59;;;;;;;7.65;3.95;;;-4.70;99.90;;;;;;5096580;28;20464;-70
2022/03/03 03:48:24;;;;;;;6.38;3.33;;;-4.70;99.90;;;;;;5097203;28;20099;-71
2022/03/03 03:50:50;;;;;;;8.85;4.15;;;-4.70;99.90;;;;;;5096592;28;20032;-71
2022/03/03 03:53:16;;;;;;;8.93;4.15;;;-4.60;99.90;;;;;;5096308;28;20020;-70
2022/03/03 03:55:42;;;;;;;9.20;4.22;;;-4.60;99.90;;;;;;5096734;28;20104;-71
2022/03/03 03:58:08;;;;;;;10.13;4.68;;;-4.60;99.90;;;;;;5096384;28;20024;-71
2022/03/03 04:00:33;;;;;;;7.82;4.00;;;-4.50;99.90;;;;;;5078105;28;20024;-71
2022/03/03 04:02:59;;;;;;;6.32;3.50;;;-4.50;99.90;;;;;;5096667;28;20042;-71
2022/03/03 04:05:25;;;;;;;8.48;3.90;;;-4.50;99.90;;;;;;5096332;28;20047;-71
2022/03/03 04:07:50;;;;;;;7.28;3.83;;;-4.50;99.90;;;;;;5095875;28;20018;-70
2022/03/03 04:10:16;;;;;;;8.65;4.35;;;-4.50;99.90;;;;;;5096238;28;20031;-71
2022/03/03 04:12:42;;;;;;;9.20;4.38;;;-4.50;99.90;;;;;;5096101;28;20028;-71
2022/03/03 04:15:09;;;;;;;8.27;4.05;;;-4.50;99.90;;;;;;5096168;28;20028;-70
2022/03/03 04:17:35;;;;;;;8.45;3.80;;;-4.60;99.90;;;;;;5095971;28;20058;-71
2022/03/03 04:20:03;;;;;;;7.38;3.85;;;-4.60;99.90;;;;;;5095953;28;20024;-71
2022/03/03 04:22:28;;;;;;;10.95;4.63;;;-4.70;99.90;;;;;;5095832;28;20107;-70
2022/03/03 04:24:54;;;;;;;9.40;4.22;;;-4.70;99.90;;;;;;5095942;28;20056;-70
2022/03/03 04:27:20;;;;;;;8.35;4.28;;;-4.70;99.90;;;;;;5096373;28;20020;-71
2022/03/03 04:29:47;;;;;;;8.82;3.92;;;-4.70;99.90;;;;;;5096147;28;20406;-71
2022/03/03 04:32:12;;;;;;;13.77;4.68;;;-4.70;99.90;;;;;;5096167;28;20024;-71
2022/03/03 04:34:39;;;;;;;10.98;4.57;;;-4.80;99.90;;;;;;5096077;28;20028;-71
2022/03/03 04:37:04;;;;;;;9.88;4.60;;;-4.80;99.90;;;;;;5095695;28;20356;-71
2022/03/03 04:39:30;;;;;;;9.23;4.05;;;-4.80;99.90;;;;;;5095931;28;20024;-71
2022/03/03 04:41:57;;;;;;;10.50;5.10;;;-4.80;99.90;;;;;;5095801;28;20066;-71
2022/03/03 04:44:22;;;;;;;11.13;5.07;;;-5.00;99.90;;;;;;5095851;28;20024;-71
2022/03/03 04:46:48;;;;;;;12.02;5.43;;;-5.00;99.90;;;;;;5095477;28;20020;-71
2022/03/03 04:49:14;;;;;;;11.07;5.85;;;-5.10;99.90;;;;;;5096081;28;20042;-71
2022/03/03 04:51:40;;;;;;;9.55;5.10;;;-5.10;99.90;;;;;;5095681;28;20123;-71
2022/03/03 04:54:07;;;;;;;9.75;4.78;;;-5.10;99.90;;;;;;5095229;28;20412;-71
2022/03/03 04:56:33;;;;;;;9.35;5.07;;;-5.10;99.90;;;;;;5095560;28;20050;-71
2022/03/03 04:58:59;;;;;;;11.98;5.03;;;-5.10;99.90;;;;;;5095331;28;20456;-71
2022/03/03 05:01:25;;;;;;;9.57;4.68;;;-5.10;99.90;;;;;;5077067;28;20123;-71
2022/03/03 05:03:50;;;;;;;12.13;5.10;;;-5.10;99.90;;;;;;5095547;28;20103;-71
2022/03/03 05:06:17;;;;;;;12.25;4.85;;;-5.10;99.90;;;;;;5095328;28;20020;-71
2022/03/03 05:08:43;;;;;;;10.40;4.68;;;-5.20;99.90;;;;;;5076768;28;20021;-71
2022/03/03 05:11:09;;;;;;;10.50;4.57;;;-5.20;99.90;;;;;;5095059;28;20032;-71
2022/03/03 05:13:36;;;;;;;10.95;4.40;;;-5.20;99.90;;;;;;5095329;28;20429;-71
2022/03/03 05:16:03;;;;;;;14.73;4.82;;;-5.20;99.90;;;;;;5094115;28;20441;-73
2022/03/03 05:18:29;;;;;;;10.07;4.82;;;-5.20;99.90;;;;;;5093708;28;20020;-70
2022/03/03 05:20:55;;;;;;;11.25;4.50;;;-5.20;99.90;;;;;;5094346;28;20107;-71
2022/03/03 05:23:22;;;;;;;35.60;10.52;;;-5.30;99.90;;;;;;5094002;28;20018;-71
2022/03/03 05:25:47;;;;;;;99.45;27.92;;;-5.20;99.90;;;;;;5094515;28;20055;-70
2022/03/03 05:28:13;;;;;;;38.97;13.30;;;-5.20;99.90;;;;;;5094744;28;20052;-71
2022/03/03 05:30:39;;;;;;;31.45;10.38;;;-5.20;99.90;;;;;;5094664;28;20043;-71
2022/03/03 05:33:05;;;;;;;26.23;9.25;;;-5.30;99.90;;;;;;5094585;28;20027;-71
2022/03/03 05:35:31;;;;;;;29.30;11.52;;;-5.30;99.90;;;;;;5094570;28;20479;-71
2022/03/03 05:37:56;;;;;;;21.63;10.57;;;-5.30;99.90;;;;;;5076148;28;20032;-71
2022/03/03 05:40:22;;;;;;;17.85;6.85;;;-5.40;99.90;;;;;;5094337;28;20024;-71
2022/03/03 05:42:47;;;;;;;15.25;7.30;;;-5.50;99.90;;;;;;5076260;28;20020;-71
2022/03/03 05:45:14;;;;;;;15.85;7.20;;;-5.50;99.90;;;;;;5094342;28;20024;-71
2022/03/03 05:47:41;;;;;;;17.98;7.95;;;-5.60;99.90;;;;;;5094347;28;20089;-71
2022/03/03 05:50:07;;;;;;;15.45;7.72;;;-5.70;99.90;;;;;;5094525;28;20497;-71
2022/03/03 05:52:33;;;;;;;14.80;7.47;;;-5.80;99.90;;;;;;5076231;28;20032;-71
2022/03/03 05:54:59;;;;;;;12.27;6.95;;;-5.90;99.90;;;;;;5094227;28;20551;-71
2022/03/03 05:57:32;;;;;;;13.23;6.40;;;-5.90;99.90;;;;;;5094110;28;20042;-72
2022/03/03 06:00:02;;;;;;;20.50;8.40;;;-5.90;99.90;;;;;;5094364;28;20032;-71
2022/03/03 06:02:27;;;;;;;24.05;11.68;;;-6.00;99.90;;;;;;5094057;28;20020;-71
2022/03/03 06:04:53;;;;;;;25.33;11.45;;;-6.10;99.90;;;;;;5094045;28;20483;-71
2022/03/03 06:07:29;;;;;;;22.98;10.93;;;-6.20;99.90;;;;;;5093937;28;20020;-71
2022/03/03 06:09:57;;;;;;;18.73;9.75;;;-6.30;99.90;;;;;;5075823;28;20024;-72
2022/03/03 06:12:38;;;;;;;25.48;10.23;;;-6.40;99.90;;;;;;5094436;28;20016;-72
2022/03/03 06:15:05;;;;;;;23.20;10.60;;;-6.30;99.90;;;;;;5094443;28;20573;-72
2022/03/03 06:17:32;;;;;;;24.83;10.30;;;-6.20;99.90;;;;;;5093634;28;20391;-72
2022/03/03 06:20:04;;;;;;;19.60;9.27;;;-6.20;99.90;;;;;;5094249;28;20459;-72
2022/03/03 06:22:30;;;;;;;16.80;7.72;;;-6.10;99.90;;;;;;5093910;28;20093;-71
2022/03/03 06:24:55;;;;;;;13.25;5.65;;;-6.00;99.90;;;;;;5093810;28;20369;-71
2022/03/03 06:27:21;;;;;;;11.40;4.97;;;-6.00;99.90;;;;;;5093636;28;20080;-71
2022/03/03 06:29:47;;;;;;;9.40;5.10;;;-6.10;99.90;;;;;;5093627;28;20032;-71
2022/03/03 06:32:13;;;;;;;11.25;5.57;;;-6.10;99.90;;;;;;5093621;28;20472;-72
2022/03/03 06:34:39;;;;;;;17.83;6.00;;;-6.10;99.90;;;;;;5094118;28;20023;-71
2022/03/03 06:37:05;;;;;;;14.07;4.93;;;-6.20;99.90;;;;;;5093794;28;20024;-71
2022/03/03 06:39:31;;;;;;;13.27;5.57;;;-6.20;99.90;;;;;;5093811;28;20468;-72
2022/03/03 06:41:57;;;;;;;10.63;4.95;;;-6.20;99.90;;;;;;5093421;28;20406;-71
2022/03/03 06:44:22;;;;;;;12.77;5.57;;;-6.20;99.90;;;;;;5093786;28;20028;-72
2022/03/03 06:46:48;;;;;;;9.63;4.82;;;-6.20;99.90;;;;;;5093638;28;20020;-71
2022/03/03 06:49:14;;;;;;;11.65;5.47;;;-6.10;99.90;;;;;;5075693;28;20425;-71
2022/03/03 06:51:41;;;;;;;13.18;4.90;;;-6.10;99.90;;;;;;5093729;28;20032;-71
2022/03/03 06:54:13;;;;;;;11.32;5.10;;;-6.10;99.90;;;;;;5093371;28;20057;-71
2022/03/03 06:56:47;;;;;;;19.92;7.20;;;-6.00;99.90;;;;;;5093580;28;20069;-71
2022/03/03 06:59:18;;;;;;;15.13;6.13;;;-6.00;99.90;;;;;;5093671;28;20024;-71
2022/03/03 07:01:46;;;;;;;;;;;-5.90;99.90;;;;;;5075602;28;20028;-71
2022/03/03 07:04:13;;;;;;;9.60;5.63;;;-5.80;99.90;;;;;;5093269;28;19904;-71
2022/03/03 07:06:39;;;;;;;14.23;5.82;;;-5.80;99.90;;;;;;5075064;28;20099;-71
2022/03/03 07:09:05;;;;;;;14.68;6.25;;;-5.70;99.90;;;;;;5093201;28;20024;-71
2022/03/03 07:11:32;;;;;;;14.82;5.60;;;-5.60;99.90;;;;;;5075134;28;20028;-71
2022/03/03 07:13:59;;;;;;;12.90;6.00;;;-5.50;99.90;;;;;;5075044;28;20397;-71
2022/03/03 07:16:28;;;;;;;22.88;7.05;;;-5.50;99.90;;;;;;5092997;28;20103;-71
2022/03/03 07:18:55;;;;;;;23.10;6.40;;;-5.40;99.90;;;;;;5093251;28;20426;-71
2022/03/03 07:21:29;;;;;;;15.90;6.63;;;-5.40;99.90;;;;;;5093102;28;20027;-72
2022/03/03 07:24:03;;;;;;;15.98;6.20;;;-5.30;99.90;;;;;;5075091;28;20062;-71
2022/03/03 07:26:30;;;;;;;15.25;6.30;;;-5.20;99.90;;;;;;5074930;28;20020;-71
2022/03/03 07:29:01;;;;;;;14.60;7.35;;;-5.10;99.90;;;;;;5093049;28;20025;-71
2022/03/03 07:31:31;;;;;;;13.13;5.95;;;-5.00;99.90;;;;;;5093131;28;20040;-71
2022/03/03 07:34:00;;;;;;;16.67;6.60;;;-4.90;99.90;;;;;;5093285;28;20024;-72
2022/03/03 07:36:28;;;;;;;18.42;6.63;;;-4.90;99.90;;;;;;5093012;28;20020;-72
2022/03/03 07:39:00;;;;;;;13.27;6.40;;;-4.90;99.90;;;;;;5092415;28;20028;-71
2022/03/03 07:41:27;;;;;;;16.65;5.78;;;-4.80;99.90;;;;;;5090913;28;20032;-71
2022/03/03 07:43:55;;;;;;;17.95;6.00;;;-4.80;99.90;;;;;;5090941;28;20477;-72
2022/03/03 07:46:22;;;;;;;15.35;6.57;;;-4.80;99.90;;;;;;5090868;28;20095;-71
2022/03/03 07:48:50;;;;;;;15.10;7.90;;;-4.70;99.90;;;;;;5094102;28;20682;-71
2022/03/03 07:51:17;;;;;;;40.92;18.52;;;-4.60;99.90;;;;;;5076255;28;20077;-72
2022/03/03 07:53:43;;;;;;;32.30;15.43;;;-4.60;99.90;;;;;;5094977;28;20107;-72
2022/03/03 07:56:12;;;;;;;26.45;12.07;;;-4.50;99.90;;;;;;5095181;28;20052;-71
2022/03/03 07:58:44;;;;;;;20.00;7.78;;;-4.50;99.90;;;;;;5096685;28;20413;-72
2022/03/03 08:01:14;;;;;;;12.75;5.40;;;-4.40;99.90;;;;;;5096558;28;20468;-72
2022/03/03 08:03:45;;;;;;;15.00;5.38;;;-4.30;99.90;;;;;;5096644;28;20032;-71
2022/03/03 08:06:13;;;;;;;22.67;6.25;;;-4.20;99.90;;;;;;5096556;28;20385;-72
2022/03/03 08:08:39;;;;;;;14.77;6.00;;;-4.10;99.90;;;;;;5096223;28;20016;-72
2022/03/03 08:11:07;;;;;;;23.52;8.15;;;-3.90;99.90;;;;;;5096356;28;20027;-71
2022/03/03 08:13:34;;;;;;;16.00;8.00;;;-3.80;99.90;;;;;;5096369;28;20024;-72
2022/03/03 08:16:00;;;;;;;25.98;11.13;;;-3.60;99.90;;;;;;5095909;28;20044;-72
2022/03/03 08:18:32;;;;;;;20.45;8.45;;;-3.50;99.90;;;;;;5096262;28;20114;-72
2022/03/03 08:21:01;;;;;;;21.20;10.38;;;-3.40;99.90;;;;;;5096441;28;20031;-72
2022/03/03 08:23:27;;;;;;;19.92;9.32;;;-3.30;99.90;;;;;;5095863;28;20035;-71
2022/03/03 08:25:55;;;;;;;19.83;9.38;;;-3.30;99.90;;;;;;5096033;28;20028;-72
2022/03/03 08:28:24;;;;;;;31.23;9.95;;;-3.10;99.90;;;;;;5077683;28;20024;-72
2022/03/03 08:31:05;;;;;;;21.98;9.82;;;-3.00;99.90;;;;;;5077656;28;20020;-72
2022/03/03 08:33:34;;;;;;;27.73;10.75;;;-2.90;99.90;;;;;;5095779;28;20023;-72
2022/03/03 08:36:01;;;;;;;20.35;9.32;;;-2.90;99.90;;;;;;5095854;28;20104;-72
2022/03/03 08:38:34;;;;;;;26.33;10.50;;;-2.80;99.90;;;;;;5095856;28;20035;-72
2022/03/03 08:41:01;;;;;;;22.40;10.98;;;-2.70;99.90;;;;;;5096100;28;20020;-72
2022/03/03 08:43:32;;;;;;;26.65;11.23;;;-2.60;99.90;;;;;;5095830;28;20073;-72
2022/03/03 08:46:02;;;;;;;22.55;10.48;;;-2.40;99.90;;;;;;5095472;28;20020;-72
2022/03/03 08:48:31;;;;;;;23.77;9.90;;;-2.30;99.90;;;;;;5095693;28;20073;-72
2022/03/03 08:50:58;;;;;;;30.05;11.27;;;-2.20;99.90;;;;;;5095969;28;20024;-72
2022/03/03 08:53:24;;;;;;;24.17;11.07;;;-2.10;99.90;;;;;;5077230;28;20024;-72
2022/03/03 08:55:53;;;;;;;23.30;10.07;;;-2.00;99.90;;;;;;5095221;28;20028;-72
2022/03/03 08:58:20;;;;;;;20.65;10.93;;;-1.90;99.90;;;;;;5094592;28;20024;-72
2022/03/03 09:00:48;;;;;;;22.98;10.75;;;-1.90;99.90;;;;;;5076822;28;20464;-72
2022/03/03 09:03:15;;;;;;;22.75;9.68;;;-1.70;99.90;;;;;;5095172;28;20365;-72
2022/03/03 09:05:41;;;;;;;23.50;11.20;;;-1.60;99.90;;;;;;5095068;28;20408;-72
2022/03/03 09:08:07;;;;;;;27.13;11.80;;;-1.60;99.90;;;;;;5094955;28;20024;-72
2022/03/03 09:10:33;;;;;;;27.17;13.20;;;-1.50;99.90;;;;;;5076803;28;20046;-72
2022/03/03 09:13:00;;;;;;;33.05;14.48;;;-1.40;99.90;;;;;;5094973;28;20028;-72
2022/03/03 09:15:26;;;;;;;41.30;21.38;;;-1.20;99.90;;;;;;5094913;28;20111;-72
2022/03/03 09:17:52;;;;;;;45.22;22.27;;;-1.10;99.90;;;;;;5076480;28;20161;-72
2022/03/03 09:20:17;;;;;;;34.20;15.07;;;-1.00;99.90;;;;;;5095058;28;20024;-72
2022/03/03 09:22:46;;;;;;;37.95;15.18;;;-0.80;99.90;;;;;;5095028;28;20422;-72
2022/03/03 09:25:12;;;;;;;33.25;15.75;;;-0.60;99.30;;;;;;5094991;28;20418;-72
2022/03/03 09:27:38;;;;;;;32.47;15.10;;;-0.50;98.90;;;;;;5094857;28;20021;-72
2022/03/03 09:30:06;;;;;;;28.75;14.30;;;-0.40;98.70;;;;;;5094871;28;20016;-72
2022/03/03 09:32:32;;;;;;;21.85;11.90;;;-0.30;98.60;;;;;;5094579;28;20024;-72
2022/03/03 09:34:58;;;;;;;24.27;11.85;;;-0.20;98.50;;;;;;5094878;28;20019;-72
2022/03/03 09:37:23;;;;;;;27.17;13.45;;;-0.10;98.40;;;;;;5076315;28;20032;-72
2022/03/03 09:39:50;;;;;;;27.92;13.70;;;0.00;98.50;;;;;;5094436;28;20062;-72
2022/03/03 09:42:16;;;;;;;27.75;14.68;;;0.10;98.60;;;;;;5094405;28;20425;-72
2022/03/03 09:44:43;;;;;;;30.20;15.73;;;0.20;98.60;;;;;;5094444;28;20062;-72
2022/03/03 09:47:11;;;;;;;28.42;15.50;;;0.30;98.70;;;;;;5094277;28;20498;-72
2022/03/03 09:49:38;;;;;;;26.52;13.23;;;0.40;98.10;;;;;;5094306;28;20387;-72
2022/03/03 09:52:18;;;;;;;27.90;14.50;;;0.60;97.40;;;;;;5094087;28;20031;-72
2022/03/03 09:54:48;;;;;;;29.45;14.20;;;0.70;96.70;;;;;;5094178;28;20020;-72
2022/03/03 09:57:15;;;;;;;32.95;14.85;;;0.80;96.80;;;;;;5095097;28;20028;-72
2022/03/03 09:59:42;;;;;;;25.42;14.63;;;0.90;96.90;;;;;;5075982;28;20034;-72
2022/03/03 10:02:08;;;;;;;29.58;13.73;;;1.00;96.50;;;;;;5093988;28;20056;-72
2022/03/03 10:04:34;;;;;;;30.02;17.13;;;1.20;95.30;;;;;;5094555;28;20024;-72
2022/03/03 10:07:05;;;;;;;32.55;15.23;;;1.30;94.90;;;;;;5093915;28;20012;-72
2022/03/03 10:09:32;;;;;;;28.70;15.15;;;1.40;94.30;;;;;;5093836;28;20501;-72
2022/03/03 10:12:06;;;;;;;32.10;16.35;;;1.40;93.90;;;;;;5093709;28;20081;-72
2022/03/03 10:14:38;;;;;;;31.08;15.57;;;1.50;92.70;;;;;;5075686;28;20020;-72
2022/03/03 10:17:05;;;;;;;32.83;14.20;;;1.60;91.30;;;;;;5075577;28;20081;-72
2022/03/03 10:19:32;;;;;;;30.08;13.20;;;1.80;90.00;;;;;;5093807;28;20031;-72
2022/03/03 10:21:57;;;;;;;26.88;14.38;;;1.90;90.20;;;;;;5093718;28;20020;-72
2022/03/03 10:24:28;;;;;;;23.63;11.73;;;2.00;90.30;;;;;;5094014;28;20472;-72
2022/03/03 10:27:06;;;;;;;15.23;7.75;;;2.20;88.80;;;;;;5093883;28;20027;-72
2022/03/03 10:29:33;;;;;;;15.95;8.15;;;2.30;85.10;;;;;;5103014;23;20040;-77
2022/03/03 10:31:59;;;;;;;19.08;8.57;;;2.40;83.10;;;;;;5094594;28;20373;-77
2022/03/03 10:34:30;;;;;;;19.25;9.63;;;2.40;83.90;;;;;;5076785;28;20020;-77
2022/03/03 10:36:57;;;;;;;;;;;2.50;83.30;;;;;;5071876;28;20071;-77
2022/03/03 10:39:23;;;;;;;18.33;7.95;;;2.60;84.40;;;;;;5074955;28;19911;-77
2022/03/03 10:41:55;;;;;;;10.93;6.95;;;2.70;84.10;;;;;;5074200;28;20384;-77
2022/03/03 10:44:27;;;;;;;12.70;6.00;;;2.80;84.20;;;;;;5057113;28;20434;-78
2022/03/03 10:47:12;;;;;;;14.45;7.40;;;2.90;82.20;;;;;;5074826;28;20024;-78
2022/03/03 10:49:40;;;;;;;13.88;7.07;;;3.00;81.60;;;;;;5074750;28;20099;-78
2022/03/03 10:52:11;;;;;;;11.45;5.78;;;3.10;79.10;;;;;;5057919;28;20052;-78
2022/03/03 10:54:55;;;;;;;;;;;3.20;78.30;;;;;;5076749;28;20028;-78
2022/03/03 10:57:45;;;;;;;10.85;5.82;;;3.20;77.90;;;;;;5076556;28;20360;-78
2022/03/03 11:00:11;;;;;;;13.48;4.70;;;3.30;77.70;;;;;;5076679;28;20029;-78
2022/03/03 11:02:39;;;;;;;9.25;5.32;;;3.40;74.50;;;;;;5076482;28;20028;-78
2022/03/03 11:05:09;;;;;;;11.43;4.53;;;3.40;73.00;;;;;;5077321;28;20027;-78
2022/03/03 11:07:36;;;;;;;11.27;6.20;;;3.50;73.40;;;;;;5077583;28;20017;-78
2022/03/03 11:10:04;;;;;;;11.23;5.70;;;3.60;72.80;;;;;;5077221;28;20427;-78
2022/03/03 11:12:30;;;;;;;10.55;5.47;;;3.70;71.60;;;;;;5058983;28;20415;-78
2022/03/03 11:14:56;;;;;;;9.98;4.45;;;3.80;71.90;;;;;;5076511;28;20020;-78
2022/03/03 11:17:23;;;;;;;8.13;3.30;;;3.90;70.50;;;;;;5076929;28;20457;-78
2022/03/03 11:19:58;;;;;;;8.55;3.28;;;3.90;69.80;;;;;;5076476;28;20039;-78
2022/03/03 11:22:23;;;;;;;7.40;3.83;;;4.00;69.70;;;;;;5078527;28;20020;-78
2022/03/03 11:24:50;;;;;;;11.60;4.13;;;4.10;70.30;;;;;;5080337;28;20480;-78
2022/03/03 11:27:16;;;;;;;6.50;3.72;;;4.20;71.00;;;;;;5079957;28;20429;-78
2022/03/03 11:29:42;;;;;;;9.35;3.80;;;4.30;70.40;;;;;;5080120;28;20096;-78
2022/03/03 11:32:14;;;;;;;11.93;4.95;;;4.50;71.00;;;;;;5080383;28;20064;-79
2022/03/03 11:34:42;;;;;;;11.68;5.60;;;4.60;70.20;;;;;;5079981;28;20039;-79
2022/03/03 11:37:22;;;;;;;11.25;5.60;;;4.70;71.20;;;;;;5080161;28;20024;-79
2022/03/03 11:39:49;;;;;;;12.27;6.07;;;4.80;69.80;;;;;;5080026;28;20389;-79
2022/03/03 11:42:19;;;;;;;15.98;8.07;;;4.80;69.30;;;;;;5080321;28;20765;-79
2022/03/03 11:44:45;;;;;;;16.65;8.00;;;5.00;69.90;;;;;;5061922;28;20183;-79
2022/03/03 11:47:26;;;;;;;12.43;5.75;;;5.10;70.10;;;;;;5077565;28;20075;-79
2022/03/03 11:50:17;;;;;;;9.98;4.70;;;5.30;66.30;;;;;;5077659;28;20020;-79
2022/03/03 11:52:44;;;;;;;8.90;4.25;;;5.40;66.30;;;;;;5079366;28;20021;-79
2022/03/03 11:55:42;;;;;;;11.02;5.20;;;5.50;64.00;;;;;;5078592;28;20062;-79
2022/03/03 11:58:27;;;;;;;11.73;5.20;;;5.60;63.20;;;;;;5077617;28;20070;-79
2022/03/03 12:01:13;;;;;;;13.82;5.78;;;5.60;63.70;;;;;;5076996;28;20020;-79
2022/03/03 12:04:02;;;;;;;11.30;6.10;;;5.70;65.60;;;;;;5077276;28;20025;-79
2022/03/03 12:06:43;;;;;;;9.75;5.72;;;5.80;66.50;;;;;;5058628;28;20035;-79
2022/03/03 12:09:26;;;;;;;20.05;7.07;;;5.80;66.80;;;;;;5077372;28;20021;-79
2022/03/03 12:12:10;;;;;;;14.98;6.65;;;5.90;63.00;;;;;;5077128;28;20540;-79
2022/03/03 12:14:39;;;;;;;16.48;6.72;;;6.10;65.60;;;;;;5076812;28;20071;-79
2022/03/03 12:17:55;;;;;;;14.40;7.68;;;6.10;66.10;;;;;;5076424;28;20369;-79
2022/03/03 12:20:23;;;;;;;12.68;6.13;;;6.30;66.40;;;;;;4975628;28;20070;-79
2022/03/03 12:23:13;;;;;;;14.95;6.00;;;6.40;64.90;;;;;;5068519;28;20489;-79
2022/03/03 12:25:51;;;;;;;11.05;5.85;;;6.40;63.80;;;;;;5049628;28;20036;-79
2022/03/03 12:28:19;;;;;;;11.95;5.72;;;6.50;62.80;;;;;;5076211;28;20032;-79
2022/03/03 12:30:46;;;;;;;15.68;6.30;;;6.60;61.40;;;;;;5076214;28;20487;-79
2022/03/03 12:33:29;;;;;;;13.45;5.45;;;6.80;61.50;;;;;;5057771;28;20033;-80
2022/03/03 12:36:04;;;;;;;8.63;4.78;;;6.90;61.40;;;;;;5057257;28;20017;-79
2022/03/03 12:38:33;;;;;;;10.70;5.00;;;7.00;60.00;;;;;;5075473;28;20499;-79
2022/03/03 12:40:58;;;;;;;11.60;4.30;;;7.20;59.10;;;;;;5075845;28;20028;-80
2022/03/03 12:43:24;;;;;;;9.88;3.75;;;7.30;59.00;;;;;;5075960;28;20028;-79
2022/03/03 12:45:50;;;;;;;5.43;3.00;;;7.40;58.40;;;;;;5057874;28;20056;-79
2022/03/03 12:48:30;;;;;;;8.82;3.42;;;7.50;58.60;;;;;;5057348;28;20391;-79
2022/03/03 12:51:07;;;;;;;9.43;3.50;;;7.50;56.70;;;;;;5075860;28;20024;-79